createdAt,value
2019-01-04T00:01:27.505Z,8.10
2019-01-04T00:03:56.080Z,8.83
2019-01-04T00:06:24.559Z,7.53
2019-01-04T00:08:53.087Z,8.10
2019-01-04T00:11:21.714Z,7.43
2019-01-04T00:13:50.240Z,6.63
2019-01-04T00:16:18.795Z,7.63
2019-01-04T00:18:48.129Z,7.67
2019-01-04T00:21:17.430Z,7.37
2019-01-04T00:23:45.995Z,7.43
2019-01-04T00:26:14.524Z,6.87
2019-01-04T00:28:43.035Z,7.30
2019-01-04T00:31:11.590Z,6.70
2019-01-04T00:33:40.072Z,6.73
2019-01-04T00:36:08.605Z,7.80
2019-01-04T00:38:37.098Z,7.03
2019-01-04T00:41:05.636Z,7.10
2019-01-04T00:43:34.103Z,8.37
2019-01-04T00:46:02.576Z,7.93
2019-01-04T00:48:31.118Z,7.93
2019-01-04T00:50:59.742Z,8.10
2019-01-04T00:53:28.286Z,7.80
2019-01-04T00:56:14.927Z,8.20
2019-01-04T00:59:05.863Z,7.87
2019-01-04T01:02:09.314Z,7.77
2019-01-04T01:04:43.848Z,8.00
2019-01-04T01:07:24.010Z,8.20
2019-01-04T01:10:13.425Z,7.60
2019-01-04T01:12:47.904Z,8.03
2019-01-04T01:15:52.949Z,7.57
2019-01-04T01:18:48.384Z,8.37
2019-01-04T01:21:39.156Z,7.50
2019-01-04T01:24:43.657Z,8.50
2019-01-04T01:27:18.073Z,8.30
2019-01-04T01:30:25.765Z,8.77
2019-01-04T01:33:14.021Z,9.27
2019-01-04T01:35:51.003Z,9.50
2019-01-04T01:38:42.315Z,9.33
2019-01-04T01:41:45.866Z,9.40
2019-01-04T01:44:41.454Z,9.50
2019-01-04T01:47:18.731Z,8.93
2019-01-04T01:50:02.528Z,10.23
2019-01-04T01:52:34.137Z,9.33
2019-01-04T01:55:02.809Z,9.53
2019-01-04T01:57:31.392Z,10.20
2019-01-04T01:59:59.891Z,9.87
2019-01-04T02:02:28.387Z,9.60
2019-01-04T02:04:57.019Z,10.10
2019-01-04T02:07:25.564Z,10.07
2019-01-04T02:09:54.195Z,10.50
2019-01-04T02:12:22.739Z,10.53
2019-01-04T02:14:51.217Z,9.53
2019-01-04T02:17:22.646Z,10.03
2019-01-04T02:19:51.205Z,9.60
2019-01-04T02:22:19.887Z,8.90
2019-01-04T02:24:48.400Z,9.70
2019-01-04T02:27:16.872Z,9.70
2019-01-04T02:29:45.340Z,9.80
2019-01-04T02:32:13.898Z,9.90
2019-01-04T02:34:42.370Z,10.10
2019-01-04T02:37:10.906Z,10.17
2019-01-04T02:39:39.379Z,10.73
2019-01-04T02:42:07.839Z,9.90
2019-01-04T02:44:36.302Z,9.97
2019-01-04T02:47:04.853Z,10.73
2019-01-04T02:49:33.333Z,10.80
2019-01-04T02:52:01.804Z,11.37
2019-01-04T02:54:30.322Z,11.50
2019-01-04T02:56:58.843Z,10.40
2019-01-04T02:59:27.422Z,11.17
2019-01-04T03:01:55.913Z,10.10
2019-01-04T03:04:24.660Z,10.23
2019-01-04T03:06:53.626Z,10.67
2019-01-04T03:09:22.549Z,10.43
2019-01-04T03:11:51.826Z,11.53
2019-01-04T03:14:20.714Z,11.17
2019-01-04T03:16:49.593Z,10.90
2019-01-04T03:19:18.523Z,12.40
2019-01-04T03:21:47.444Z,13.60
2019-01-04T03:24:16.423Z,14.10
2019-01-04T03:26:45.330Z,12.33
2019-01-04T03:29:14.272Z,12.47
2019-01-04T03:31:44.189Z,12.27
2019-01-04T03:34:13.157Z,13.40
2019-01-04T03:36:42.125Z,11.90
2019-01-04T03:39:11.019Z,11.57
2019-01-04T03:41:39.911Z,12.30
2019-01-04T03:44:08.432Z,12.90
2019-01-04T03:46:36.951Z,12.07
2019-01-04T03:49:05.444Z,11.90
2019-01-04T03:51:33.961Z,13.50
2019-01-04T03:54:04.017Z,13.10
2019-01-04T03:56:32.508Z,12.73
2019-01-04T03:59:00.980Z,13.97
2019-01-04T04:01:29.439Z,13.47
2019-01-04T04:03:57.914Z,13.10
2019-01-04T04:06:26.480Z,13.70
2019-01-04T04:08:54.950Z,14.53
2019-01-04T04:11:23.539Z,13.17
2019-01-04T04:13:52.022Z,14.23
2019-01-04T04:16:20.509Z,13.47
2019-01-04T04:18:49.016Z,11.97
2019-01-04T04:21:17.614Z,11.90
2019-01-04T04:23:46.174Z,12.13
2019-01-04T04:26:14.743Z,11.97
2019-01-04T04:28:43.353Z,11.33
2019-01-04T04:31:11.890Z,11.60
2019-01-04T04:33:40.438Z,11.23
2019-01-04T04:36:08.891Z,11.00
2019-01-04T04:38:37.372Z,10.90
2019-01-04T04:41:05.886Z,11.10
2019-01-04T04:43:34.362Z,10.33
2019-01-04T04:46:02.938Z,11.30
2019-01-04T04:48:31.560Z,12.00
2019-01-04T04:51:01.205Z,11.07
2019-01-04T04:53:29.765Z,12.50
2019-01-04T04:55:58.357Z,13.43
2019-01-04T04:58:26.830Z,12.97
2019-01-04T05:00:55.318Z,12.47
2019-01-04T05:03:23.855Z,12.93
2019-01-04T05:05:52.331Z,14.47
2019-01-04T05:08:20.893Z,14.77
2019-01-04T05:10:49.460Z,15.30
2019-01-04T05:13:18.014Z,13.93
2019-01-04T05:15:46.491Z,13.77
2019-01-04T05:18:15.037Z,12.87
2019-01-04T05:20:43.549Z,13.27
2019-01-04T05:23:12.012Z,13.17
2019-01-04T05:25:40.482Z,11.73
2019-01-04T05:28:09.046Z,11.60
2019-01-04T05:30:37.599Z,11.67
2019-01-04T05:33:06.084Z,10.97
2019-01-04T05:35:34.624Z,10.97
2019-01-04T05:38:03.109Z,10.53
2019-01-04T05:40:31.613Z,10.47
2019-01-04T05:43:00.086Z,9.47
2019-01-04T05:45:28.640Z,9.03
2019-01-04T05:47:57.173Z,9.63
2019-01-04T05:50:25.687Z,9.67
2019-01-04T05:52:54.175Z,8.30
2019-01-04T05:55:22.763Z,8.17
2019-01-04T05:57:51.282Z,6.97
2019-01-04T06:00:19.796Z,7.63
2019-01-04T06:02:48.276Z,7.17
2019-01-04T06:05:16.730Z,6.70
2019-01-04T06:07:45.200Z,6.40
2019-01-04T06:10:13.664Z,6.23
2019-01-04T06:12:42.219Z,6.20
2019-01-04T06:15:10.751Z,6.13
2019-01-04T06:17:39.213Z,5.73
2019-01-04T06:20:07.777Z,5.93
2019-01-04T06:22:38.632Z,5.20
2019-01-04T06:25:07.129Z,5.43
2019-01-04T06:27:35.668Z,5.10
2019-01-04T06:30:06.492Z,4.73
2019-01-04T06:32:35.029Z,4.93
2019-01-04T06:35:03.923Z,4.57
2019-01-04T06:37:32.478Z,4.90
2019-01-04T06:40:00.997Z,3.90
2019-01-04T06:42:29.475Z,3.80
2019-01-04T06:44:58.028Z,3.80
2019-01-04T06:47:26.583Z,3.30
2019-01-04T06:49:55.042Z,3.70
2019-01-04T06:52:23.497Z,3.83
2019-01-04T06:55:17.448Z,3.17
2019-01-04T06:57:45.907Z,3.87
2019-01-04T07:00:14.498Z,3.67
2019-01-04T07:02:43.037Z,3.90
2019-01-04T07:05:11.669Z,4.90
2019-01-04T07:07:40.244Z,4.23
2019-01-04T07:10:09.502Z,4.63
2019-01-04T07:12:38.036Z,5.87
2019-01-04T07:15:07.362Z,5.50
2019-01-04T07:17:35.811Z,4.87
2019-01-04T07:20:05.841Z,5.47
2019-01-04T07:22:34.380Z,5.50
2019-01-04T07:25:02.857Z,5.93
2019-01-04T07:27:31.385Z,5.83
2019-01-04T07:29:59.879Z,6.73
2019-01-04T07:32:29.032Z,5.97
2019-01-04T07:34:57.560Z,6.20
2019-01-04T07:37:26.041Z,6.53
2019-01-04T07:39:54.512Z,6.73
2019-01-04T07:42:23.139Z,5.83
2019-01-04T07:44:51.592Z,6.37
2019-01-04T07:47:20.077Z,6.57
2019-01-04T07:49:48.573Z,7.00
2019-01-04T07:52:17.039Z,7.40
2019-01-04T07:54:45.500Z,7.80
2019-01-04T07:57:14.000Z,7.77
2019-01-04T07:59:42.548Z,8.23
2019-01-04T08:02:33.589Z,7.90
2019-01-04T08:05:02.120Z,8.30
2019-01-04T08:07:30.665Z,8.30
2019-01-04T08:09:59.123Z,8.60
2019-01-04T08:12:27.597Z,8.17
2019-01-04T08:14:56.148Z,7.93
2019-01-04T08:17:24.695Z,8.70
2019-01-04T08:19:53.157Z,10.00
2019-01-04T08:22:21.633Z,9.50
2019-01-04T08:24:50.096Z,10.03
2019-01-04T08:27:18.595Z,9.60
2019-01-04T08:29:47.187Z,9.73
2019-01-04T08:32:15.730Z,9.73
2019-01-04T08:34:44.253Z,9.60
2019-01-04T08:37:12.739Z,9.93
2019-01-04T08:39:42.291Z,9.60
2019-01-04T08:42:12.085Z,9.00
2019-01-04T08:44:40.678Z,10.67
2019-01-04T08:47:09.285Z,11.13
2019-01-04T08:49:37.736Z,10.53
2019-01-04T08:52:06.224Z,10.47
2019-01-04T08:54:34.701Z,10.77
2019-01-04T08:57:03.436Z,10.40
2019-01-04T08:59:32.004Z,11.17
2019-01-04T09:02:00.584Z,12.13
2019-01-04T09:04:29.097Z,12.47
2019-01-04T09:06:57.697Z,12.57
2019-01-04T09:09:26.174Z,11.80
2019-01-04T09:11:54.734Z,11.80
2019-01-04T09:14:23.232Z,11.37
2019-01-04T09:16:51.727Z,11.47
2019-01-04T09:19:20.203Z,11.90
2019-01-04T09:21:48.769Z,11.60
2019-01-04T09:24:17.314Z,12.10
2019-01-04T09:26:45.990Z,11.57
2019-01-04T09:29:14.653Z,12.70
2019-01-04T09:31:43.253Z,14.10
2019-01-04T09:34:11.808Z,15.27
2019-01-04T09:36:40.395Z,15.43
2019-01-04T09:39:09.045Z,16.33
2019-01-04T09:41:37.880Z,17.33
2019-01-04T09:44:06.530Z,19.63
2019-01-04T09:46:35.099Z,19.90
2019-01-04T09:49:03.697Z,19.97
2019-01-04T09:51:32.265Z,21.57
2019-01-04T09:54:00.881Z,22.40
2019-01-04T09:56:29.532Z,23.50
2019-01-04T09:58:58.093Z,24.13
2019-01-04T10:01:26.687Z,22.67
2019-01-04T10:03:55.328Z,25.27
2019-01-04T10:06:23.919Z,24.57
2019-01-04T10:08:52.567Z,26.03
2019-01-04T10:11:21.248Z,27.20
2019-01-04T10:13:49.806Z,27.73
2019-01-04T10:16:18.341Z,28.63
2019-01-04T10:18:46.899Z,28.80
2019-01-04T10:21:15.387Z,26.20
2019-01-04T10:23:43.924Z,27.63
2019-01-04T10:26:12.569Z,28.50
2019-01-04T10:28:41.235Z,29.50
2019-01-04T10:31:09.815Z,29.27
2019-01-04T10:33:38.470Z,28.13
2019-01-04T10:36:07.147Z,28.73
2019-01-04T10:38:35.838Z,29.00
2019-01-04T10:41:04.360Z,28.07
2019-01-04T10:43:33.008Z,29.27
2019-01-04T10:46:01.541Z,28.60
2019-01-04T10:48:30.063Z,28.90
2019-01-04T10:50:58.646Z,29.57
2019-01-04T10:53:27.222Z,28.67
2019-01-04T10:55:55.818Z,27.03
2019-01-04T10:58:24.577Z,27.10
2019-01-04T11:00:53.240Z,25.10
2019-01-04T11:03:21.958Z,28.73
2019-01-04T11:05:50.906Z,26.97
2019-01-04T11:08:19.527Z,26.50
2019-01-04T11:10:48.205Z,27.43
2019-01-04T11:13:16.728Z,28.67
2019-01-04T11:15:45.437Z,28.43
2019-01-04T11:18:13.988Z,27.50
2019-01-04T11:20:43.977Z,27.83
2019-01-04T11:23:36.942Z,28.03
2019-01-04T11:26:23.673Z,27.33
2019-01-04T11:29:17.990Z,28.13
2019-01-04T11:31:49.561Z,27.70
2019-01-04T11:34:30.004Z,29.27
2019-01-04T11:37:19.666Z,27.63
2019-01-04T11:40:26.085Z,28.23
2019-01-04T11:43:06.651Z,27.90
2019-01-04T11:45:38.202Z,30.27
2019-01-04T11:48:15.540Z,31.03
2019-01-04T11:50:56.176Z,31.90
2019-01-04T11:53:24.793Z,31.17
2019-01-04T11:55:53.448Z,31.87
2019-01-04T11:58:21.935Z,34.17
2019-01-04T12:00:50.647Z,32.00
2019-01-04T12:03:20.801Z,31.73
2019-01-04T12:05:49.328Z,31.17
2019-01-04T12:08:17.854Z,32.53
2019-01-04T12:10:46.363Z,32.60
2019-01-04T12:13:14.902Z,30.27
2019-01-04T12:15:43.596Z,30.90
2019-01-04T12:18:12.087Z,30.63
2019-01-04T12:20:45.379Z,30.23
2019-01-04T12:23:11.268Z,29.63
2019-01-04T12:25:39.977Z,30.40
2019-01-04T12:28:08.489Z,30.83
2019-01-04T12:30:37.033Z,27.43
2019-01-04T12:33:05.514Z,28.10
2019-01-04T12:35:34.096Z,29.27
2019-01-04T12:38:02.719Z,28.63
2019-01-04T12:40:31.237Z,29.90
2019-01-04T12:42:59.847Z,29.53
2019-01-04T12:45:28.434Z,31.57
2019-01-04T12:47:56.952Z,29.00
2019-01-04T12:50:25.432Z,31.00
2019-01-04T12:52:53.980Z,29.67
2019-01-04T12:55:22.583Z,30.07
2019-01-04T12:57:51.083Z,32.80
2019-01-04T13:00:19.631Z,30.83
2019-01-04T13:02:48.253Z,31.37
2019-01-04T13:05:16.856Z,31.67
2019-01-04T13:07:45.439Z,30.57
2019-01-04T13:10:13.972Z,31.23
2019-01-04T13:12:42.512Z,30.47
2019-01-04T13:15:11.116Z,30.80
2019-01-04T13:17:39.746Z,30.97
2019-01-04T13:20:08.416Z,29.57
2019-01-04T13:22:37.101Z,31.20
2019-01-04T13:25:06.621Z,30.47
2019-01-04T13:27:35.385Z,29.67
2019-01-04T13:30:05.031Z,29.83
2019-01-04T13:32:33.585Z,31.57
2019-01-04T13:35:02.154Z,29.87
2019-01-04T13:37:30.641Z,29.80
2019-01-04T13:39:59.230Z,29.27
2019-01-04T13:42:27.798Z,28.37
2019-01-04T13:44:56.458Z,28.37
2019-01-04T13:47:24.997Z,30.17
2019-01-04T13:49:53.562Z,30.87
2019-01-04T13:52:22.119Z,29.97
2019-01-04T13:54:50.692Z,29.23
2019-01-04T13:57:19.326Z,28.77
2019-01-04T13:59:47.890Z,27.90
2019-01-04T14:02:16.469Z,28.00
2019-01-04T14:04:44.991Z,28.63
2019-01-04T14:07:13.549Z,27.50
2019-01-04T14:09:42.187Z,27.80
2019-01-04T14:12:10.829Z,28.13
2019-01-04T14:14:39.444Z,30.50
2019-01-04T14:17:08.005Z,31.37
2019-01-04T14:19:37.398Z,32.63
2019-01-04T14:22:05.954Z,30.50
2019-01-04T14:24:34.479Z,32.50
2019-01-04T14:27:03.135Z,32.63
2019-01-04T14:29:31.674Z,30.23
2019-01-04T14:32:00.209Z,29.07
2019-01-04T14:34:28.874Z,27.43
2019-01-04T14:36:57.465Z,30.00
2019-01-04T14:39:26.055Z,29.43
2019-01-04T14:41:54.644Z,29.13
2019-01-04T14:44:23.100Z,30.03
2019-01-04T14:46:51.665Z,29.77
2019-01-04T14:49:20.224Z,28.23
2019-01-04T14:51:48.809Z,26.83
2019-01-04T14:54:17.772Z,28.67
2019-01-04T14:56:46.439Z,27.50
2019-01-04T14:59:14.947Z,27.80
2019-01-04T15:01:43.496Z,29.13
2019-01-04T15:04:12.149Z,26.63
2019-01-04T15:06:40.761Z,27.33
2019-01-04T15:09:09.288Z,26.33
2019-01-04T15:11:37.787Z,28.33
2019-01-04T15:14:06.425Z,28.47
2019-01-04T15:16:34.959Z,28.60
2019-01-04T15:19:03.766Z,30.40
2019-01-04T15:21:32.451Z,31.53
2019-01-04T15:24:01.098Z,29.00
2019-01-04T15:26:29.617Z,30.73
2019-01-04T15:28:58.135Z,28.67
2019-01-04T15:31:26.768Z,29.83
2019-01-04T15:33:55.261Z,28.07
2019-01-04T15:36:23.873Z,29.00
2019-01-04T15:38:52.592Z,29.23
2019-01-04T15:41:21.153Z,30.90
2019-01-04T15:43:49.774Z,28.13
2019-01-04T15:46:18.433Z,30.30
2019-01-04T15:48:47.072Z,31.83
2019-01-04T15:51:15.824Z,29.17
2019-01-04T15:53:44.451Z,29.87
2019-01-04T15:56:13.173Z,28.93
2019-01-04T15:58:41.703Z,29.40
2019-01-04T16:01:10.294Z,26.37
2019-01-04T16:03:38.848Z,28.03
2019-01-04T16:06:07.452Z,29.93
2019-01-04T16:08:36.144Z,28.40
2019-01-04T16:11:04.834Z,27.60
2019-01-04T16:13:33.454Z,28.10
2019-01-04T16:16:02.071Z,28.07
2019-01-04T16:18:30.578Z,27.80
2019-01-04T16:20:59.143Z,27.40
2019-01-04T16:23:27.676Z,28.67
2019-01-04T16:25:57.935Z,29.27
2019-01-04T16:28:26.552Z,29.90
2019-01-04T16:30:55.059Z,29.70
2019-01-04T16:33:24.136Z,28.53
2019-01-04T16:35:52.749Z,29.17
2019-01-04T16:38:21.387Z,27.43
2019-01-04T16:40:49.981Z,28.80
2019-01-04T16:43:18.535Z,29.03
2019-01-04T16:45:47.264Z,28.93
2019-01-04T16:48:15.931Z,29.07
2019-01-04T16:50:44.491Z,28.00
2019-01-04T16:53:12.978Z,28.00
2019-01-04T16:55:41.504Z,27.00
2019-01-04T16:58:10.952Z,25.17
2019-01-04T17:00:39.507Z,26.87
2019-01-04T17:03:08.141Z,27.50
2019-01-04T17:05:36.615Z,27.50
2019-01-04T17:08:05.231Z,26.30
2019-01-04T17:10:33.703Z,27.27
2019-01-04T17:13:02.294Z,26.67
2019-01-04T17:15:30.860Z,28.03
2019-01-04T17:17:59.385Z,29.23
2019-01-04T17:20:28.023Z,28.73
2019-01-04T17:22:56.559Z,27.47
2019-01-04T17:25:25.229Z,26.90
2019-01-04T17:27:53.777Z,27.17
2019-01-04T17:30:22.317Z,27.97
2019-01-04T17:32:50.810Z,28.50
2019-01-04T17:35:19.356Z,28.43
2019-01-04T17:37:47.815Z,29.07
2019-01-04T17:40:16.379Z,28.50
2019-01-04T17:42:44.840Z,27.90
2019-01-04T17:45:13.314Z,28.13
2019-01-04T17:47:41.893Z,28.80
2019-01-04T17:50:10.362Z,26.93
2019-01-04T17:52:38.908Z,30.20
2019-01-04T17:55:07.470Z,28.13
2019-01-04T17:57:35.971Z,28.90
2019-01-04T18:00:06.686Z,29.63
2019-01-04T18:02:35.254Z,28.27
2019-01-04T18:05:03.960Z,29.00
2019-01-04T18:07:32.481Z,28.77
2019-01-04T18:10:01.049Z,29.47
2019-01-04T18:12:29.819Z,29.20
2019-01-04T18:14:58.380Z,29.40
2019-01-04T18:17:26.878Z,30.70
2019-01-04T18:19:55.410Z,26.80
2019-01-04T18:22:24.090Z,29.20
2019-01-04T18:24:52.572Z,27.90
2019-01-04T18:27:21.135Z,27.73
2019-01-04T18:29:49.776Z,28.97
2019-01-04T18:32:18.454Z,28.93
2019-01-04T18:34:47.151Z,29.20
2019-01-04T18:37:15.792Z,26.97
2019-01-04T18:39:47.110Z,26.70
2019-01-04T18:42:15.674Z,29.47
2019-01-04T18:44:45.826Z,26.03
2019-01-04T18:47:14.522Z,27.17
2019-01-04T18:49:43.086Z,28.33
2019-01-04T18:52:11.635Z,28.27
2019-01-04T18:54:40.238Z,28.33
2019-01-04T18:57:11.482Z,27.87
2019-01-04T18:59:40.116Z,26.90
2019-01-04T19:02:08.677Z,25.73
2019-01-04T19:04:37.294Z,28.27
2019-01-04T19:07:05.845Z,24.67
2019-01-04T19:09:34.426Z,25.93
2019-01-04T19:12:02.971Z,25.83
2019-01-04T19:14:31.522Z,26.13
2019-01-04T19:17:00.086Z,23.53
2019-01-04T19:19:28.640Z,25.30
2019-01-04T19:21:57.817Z,24.57
2019-01-04T19:24:26.381Z,25.30
2019-01-04T19:26:54.931Z,25.00
2019-01-04T19:29:26.193Z,24.77
2019-01-04T19:31:54.338Z,23.80
2019-01-04T19:34:22.922Z,23.13
2019-01-04T19:36:51.520Z,24.77
2019-01-04T19:39:20.140Z,23.77
2019-01-04T19:41:48.702Z,23.77
2019-01-04T19:44:17.327Z,22.83
2019-01-04T19:46:45.838Z,23.43
2019-01-04T19:49:16.583Z,23.00
2019-01-04T19:51:45.287Z,24.13
2019-01-04T19:54:13.742Z,24.33
2019-01-04T19:56:42.342Z,23.03
2019-01-04T19:59:10.976Z,22.77
2019-01-04T20:01:39.616Z,22.73
2019-01-04T20:04:08.237Z,22.37
2019-01-04T20:07:19.722Z,21.33
2019-01-04T20:10:38.435Z,21.70
2019-01-04T20:13:59.589Z,20.27
2019-01-04T20:16:50.838Z,19.97
2019-01-04T20:19:23.587Z,18.70
2019-01-04T20:22:09.854Z,18.00
2019-01-04T20:24:40.021Z,17.47
2019-01-04T20:27:10.136Z,17.37
2019-01-04T20:29:56.643Z,16.27
2019-01-04T20:32:35.961Z,17.37
2019-01-04T20:35:14.849Z,16.20
2019-01-04T20:37:47.872Z,16.40
2019-01-04T20:40:29.928Z,16.23
2019-01-04T20:43:19.900Z,16.40
2019-01-04T20:45:52.406Z,15.47
2019-01-04T20:48:25.419Z,15.20
2019-01-04T20:51:07.975Z,14.13
2019-01-04T20:53:38.244Z,14.70
2019-01-04T20:56:20.775Z,13.37
2019-01-04T20:59:07.577Z,13.83
2019-01-04T21:01:43.975Z,14.10
2019-01-04T21:04:16.854Z,12.67
2019-01-04T21:06:56.228Z,12.53
2019-01-04T21:09:42.635Z,14.00
2019-01-04T21:12:15.576Z,12.00
2019-01-04T21:14:48.237Z,11.97
2019-01-04T21:17:27.285Z,12.50
2019-01-04T21:20:02.885Z,13.07
2019-01-04T21:22:49.068Z,12.50
2019-01-04T21:25:22.110Z,12.20
2019-01-04T21:28:07.245Z,11.60
2019-01-04T21:30:53.644Z,10.07
2019-01-04T21:33:29.739Z,11.30
2019-01-04T21:36:08.705Z,11.50
2019-01-04T21:38:44.636Z,12.30
2019-01-04T21:41:26.771Z,11.10
2019-01-04T21:43:56.986Z,11.07
2019-01-04T21:46:38.780Z,10.67
2019-01-04T21:49:08.916Z,10.43
2019-01-04T21:51:48.216Z,10.73
2019-01-04T21:54:21.090Z,9.90
2019-01-04T21:56:54.383Z,10.00
2019-01-04T21:59:36.303Z,9.90
2019-01-04T22:02:18.269Z,9.67
2019-01-04T22:04:48.473Z,9.97
2019-01-04T22:07:35.090Z,10.77
2019-01-04T22:10:21.177Z,9.63
2019-01-04T22:12:57.168Z,9.70
2019-01-04T22:15:27.395Z,8.83
2019-01-04T22:17:57.520Z,8.97
2019-01-04T22:20:27.640Z,9.07
2019-01-04T22:23:06.298Z,8.67
2019-01-04T22:25:52.838Z,7.80
2019-01-04T22:28:32.083Z,8.97
2019-01-04T22:31:18.314Z,7.60
2019-01-04T22:34:00.636Z,7.27
2019-01-04T22:36:30.781Z,8.13
2019-01-04T22:39:17.067Z,7.30
2019-01-04T22:42:02.587Z,7.27
2019-01-04T22:44:48.910Z,9.30
2019-01-04T22:47:35.053Z,6.90
2019-01-04T22:50:20.874Z,7.30
2019-01-04T22:52:46.894Z,6.40
2019-01-04T22:55:25.767Z,7.33
2019-01-04T22:58:13.986Z,7.13
2019-01-04T23:00:47.037Z,8.00
2019-01-04T23:03:23.083Z,7.13
2019-01-04T23:05:56.082Z,7.37
2019-01-04T23:08:35.099Z,7.17
2019-01-04T23:11:22.050Z,7.20
2019-01-04T23:13:52.345Z,7.97
2019-01-04T23:16:22.465Z,7.37
2019-01-04T23:19:07.638Z,7.20
2019-01-04T23:22:09.914Z,7.23
2019-01-04T23:24:55.304Z,7.03
2019-01-04T23:27:37.427Z,5.87
2019-01-04T23:30:16.810Z,6.10
2019-01-04T23:32:49.642Z,5.27
2019-01-04T23:35:36.353Z,5.57
2019-01-04T23:38:22.856Z,5.10
2019-01-04T23:40:53.015Z,5.13
2019-01-04T23:43:31.768Z,4.70
2019-01-04T23:46:05.064Z,4.80
2019-01-04T23:48:50.552Z,5.17
2019-01-04T23:51:38.729Z,4.37
2019-01-04T23:54:08.853Z,3.90
2019-01-04T23:56:55.311Z,4.20
2019-01-04T23:59:42.808Z,4.20
